Hafnia Lene — 9HA3923 — position and weather

sailwx.info

Track history (hours):
 
Tides and Currents Weather Stations Pressure Air Temp Water Temp Dewpoint Dewpoint Depression Visibility Wind Speed Wind Dir Waves Ship Positions

Hafnia Lene

Last reported at 2017-Sep-19 07:32 UTC. Time now 2017-Sep-19 17:25 UTC.
Position N 58°31' E 004°49'.

Length 183 m; draft 11 m.

Type: Tanker. MMSI: 256468000.

Date/timePositionNaut miles runAvg speedWind from/ knotsBaromVisibWave heightAir tempDewpointWater temp
2017-Sep-19 07:32N 58°31' E 004°49'114.1
2017-Sep-19 07:30N 58°30' E 004°50'714.4
2017-Sep-19 07:00N 58°28' E 005°03'714.3
2017-Sep-19 06:30N 58°25' E 005°15'714.2
2017-Sep-19 06:01N 58°20' E 005°25'714.0
2017-Sep-19 05:30N 58°16' E 005°36'714.0
2017-Sep-19 05:00N 58°11' E 005°46'714.2
2017-Sep-19 04:30N 58°07' E 005°56'714.3
2017-Sep-19 04:00N 58°02' E 006°06'714.4
2017-Sep-19 03:30N 57°57' E 006°17'714.4
2017-Sep-19 02:59N 57°52' E 006°27'714.4
2017-Sep-19 02:30N 57°48' E 006°37'714.6
2017-Sep-19 02:00N 57°48' E 006°51'815.3
2017-Sep-19 01:30N 57°48' E 007°05'815.3
2017-Sep-19 01:00N 57°47' E 007°20'815.3
2017-Sep-19 00:30N 57°47' E 007°34'714.3
2017-Sep-19 00:00N 57°46' E 007°48'713.7
2017-Sep-18 23:30N 57°46' E 008°01'713.4
2017-Sep-18 23:00N 57°47' E 008°13'7813.2
2017-Sep-18 17:06N 57°50' E 010°38'213.0
2017-Sep-18 16:59N 57°50' E 010°41'611.5
2017-Sep-18 16:30N 57°45' E 010°47'3 6.4
2017-Sep-18 15:58N 57°43' E 010°42'0 0.1
2017-Sep-18 15:10N 57°43' E 010°42'0 0.0
2017-Sep-18 14:52N 57°43' E 010°42'0 0.0
2017-Sep-18 14:28N 57°43' E 010°42'0 0.1
2017-Sep-18 13:19N 57°43' E 010°42'0 0.0
2017-Sep-18 12:01N 57°43' E 010°42'0 0.2
2017-Sep-18 11:55N 57°43' E 010°42'0 0.1
2017-Sep-18 11:23N 57°43' E 010°42'1 3.1
2017-Sep-18 11:00N 57°43' E 010°45'612.2
2017-Sep-18 10:30N 57°41' E 010°55'713.1
2017-Sep-18 10:00N 57°38' E 011°06'713.3
2017-Sep-18 09:30N 57°33' E 011°16'713.2
2017-Sep-18 09:00N 57°29' E 011°24'713.1
2017-Sep-18 08:30N 57°23' E 011°29'713.0
2017-Sep-18 08:00N 57°17' E 011°33'713.0
2017-Sep-18 07:29N 57°10' E 011°38'612.9
2017-Sep-18 07:00N 57°05' E 011°42'712.7
2017-Sep-18 06:29N 56°58' E 011°46'712.6
2017-Sep-18 05:57N 56°52' E 011°50'712.6
2017-Sep-18 05:25N 56°46' E 011°54'812.3
2017-Sep-18 04:46N 56°38' E 011°47'312.4
2017-Sep-18 04:30N 56°36' E 011°44'712.5
2017-Sep-18 03:58N 56°30' E 011°38'7212.0
2017-Sep-17 22:01N 55°21' E 011°02'014.4
2017-Sep-17 22:01N 55°21' E 011°02'713.2
2017-Sep-17 21:30N 55°15' E 011°06'611.6
2017-Sep-17 20:59N 55°09' E 011°00'613.1
2017-Sep-17 20:31N 55°03' E 011°00'713.5
2017-Sep-17 20:00N 54°57' E 010°55'714.1
2017-Sep-17 19:30N 54°51' E 010°50'713.9
2017-Sep-17 19:00N 54°44' E 010°47'611.3
2017-Sep-17 18:30N 54°40' E 010°54'713.2
2017-Sep-17 18:00N 54°38' E 011°05'713.6
2017-Sep-17 17:30N 54°35' E 011°16'714.1
2017-Sep-17 17:01N 54°32' E 011°27'713.1
2017-Sep-17 16:31N 54°29' E 011°36'612.9
2017-Sep-17 16:01N 54°27' E 011°47'713.1
2017-Sep-17 15:30N 54°27' E 011°58'612.9
2017-Sep-17 15:01N 54°27' E 012°09'612.1
2017-Sep-17 14:31N 54°32' E 012°13'2610.1
2017-Sep-17 11:58N 54°49' E 012°48'3112.7
2017-Sep-17 09:34N 54°58' E 013°38'1712.7
2017-Sep-17 08:16N 55°04' E 014°05'313.2
2017-Sep-17 08:00N 55°07' E 014°09'713.1
2017-Sep-17 07:30N 55°12' E 014°16'713.2
2017-Sep-17 07:01N 55°17' E 014°23'713.0
2017-Sep-17 06:30N 55°22' E 014°30'713.1
2017-Sep-17 06:00N 55°27' E 014°38'713.6
2017-Sep-17 05:30N 55°30' E 014°49'713.7
2017-Sep-17 05:00N 55°33' E 014°60'713.8
2017-Sep-17 04:28N 55°37' E 015°11'613.6
2017-Sep-17 04:00N 55°39' E 015°21'713.6
2017-Sep-17 03:31N 55°41' E 015°33'713.6
2017-Sep-17 03:01N 55°42' E 015°45'713.5
2017-Sep-17 02:31N 55°44' E 015°56'713.8
2017-Sep-17 02:00N 55°46' E 016°08'713.6
2017-Sep-17 01:30N 55°47' E 016°20'713.5
2017-Sep-17 01:00N 55°49' E 016°32'713.2
2017-Sep-17 00:30N 55°51' E 016°43'713.2
2017-Sep-17 00:00N 55°52' E 016°55'713.3
2017-Sep-16 23:30N 55°54' E 017°06'1213.2
2017-Sep-16 22:37N 55°57' E 017°26'313.2
2017-Sep-16 22:25N 55°57' E 017°31'27912.2
2017-Sep-15 23:37N 59°32' E 023°06'211.8
2017-Sep-15 23:27N 59°31' E 023°10'812.8
2017-Sep-15 22:48N 59°29' E 023°25'  
2017-Sep-13 18:46N 59°24' E 023°50'3 9.5
2017-Sep-13 18:25N 59°24' E 023°43'612.5
2017-Sep-13 17:58N 59°25' E 023°32'813.2
2017-Sep-13 17:23N 59°26' E 023°17'1313.7
2017-Sep-13 16:26N 59°27' E 022°52'27514.2
2017-Sep-12 21:05N 56°08' E 016°56'214.3
2017-Sep-12 20:59N 56°07' E 016°54'714.3
2017-Sep-12 20:30N 56°03' E 016°45'714.2
2017-Sep-12 20:00N 55°59' E 016°34'714.4
2017-Sep-12 19:30N 55°56' E 016°23'714.3
2017-Sep-12 19:00N 55°52' E 016°12'714.2
2017-Sep-12 18:30N 55°49' E 016°00'714.3
2017-Sep-12 18:00N 55°46' E 015°49'714.4
2017-Sep-12 17:30N 55°43' E 015°38'714.5
2017-Sep-12 17:00N 55°39' E 015°26'714.3
2017-Sep-12 16:30N 55°36' E 015°15'714.3
2017-Sep-12 16:00N 55°32' E 015°04'714.5
2017-Sep-12 15:30N 55°29' E 014°52'714.3
2017-Sep-12 15:00N 55°26' E 014°41'714.2
2017-Sep-12 14:30N 55°20' E 014°33'714.2
2017-Sep-12 14:00N 55°15' E 014°25'713.6
2017-Sep-12 13:30N 55°10' E 014°17'713.9
2017-Sep-12 13:00N 55°10' E 014°05'713.8
2017-Sep-12 12:30N 55°10' E 013°53'713.9
2017-Sep-12 11:59N 55°11' E 013°41'713.8
2017-Sep-12 11:28N 55°11' E 013°28'614.0
2017-Sep-12 11:00N 55°11' E 013°17'714.0
2017-Sep-12 10:30N 55°12' E 013°05'713.8
2017-Sep-12 10:00N 55°15' E 012°53'714.7
2017-Sep-12 09:30N 55°17' E 012°41'611.8
2017-Sep-12 09:00N 55°23' E 012°40'612.5
2017-Sep-12 08:30N 55°29' E 012°42'4 8.1
2017-Sep-12 08:00N 55°32' E 012°46'4 8.9
2017-Sep-12 07:30N 55°36' E 012°51'5 9.5
2017-Sep-12 07:00N 55°40' E 012°56'612.3
2017-Sep-12 06:30N 55°45' E 012°50'612.4
2017-Sep-12 06:00N 55°50' E 012°45'612.6
2017-Sep-12 05:30N 55°57' E 012°43'612.4
2017-Sep-12 05:00N 56°02' E 012°39'611.8
2017-Sep-12 04:30N 56°07' E 012°32'510.4
2017-Sep-12 04:00N 56°10' E 012°24'611.5
2017-Sep-12 03:30N 56°13' E 012°16'611.9
2017-Sep-12 03:00N 56°16' E 012°07'5212.3
2017-Sep-11 22:46N 57°06' E 011°39'312.0
2017-Sep-11 22:30N 57°09' E 011°37'612.1
2017-Sep-11 22:00N 57°15' E 011°33'611.6
2017-Sep-11 21:30N 57°20' E 011°30'611.5
2017-Sep-11 21:00N 57°26' E 011°26'611.9
2017-Sep-11 20:30N 57°31' E 011°22'713.0
2017-Sep-11 20:00N 57°37' E 011°16'612.4
2017-Sep-11 19:30N 57°43' E 011°14'612.8
2017-Sep-11 18:59N 57°50' E 011°12'612.7
2017-Sep-11 18:30N 57°56' E 011°09'612.3
2017-Sep-11 18:00N 58°02' E 011°06'612.2
2017-Sep-11 17:30N 58°08' E 011°02'612.1
2017-Sep-11 17:00N 58°13' E 011°01'612.0
2017-Sep-11 16:30N 58°19' E 010°57'612.3
2017-Sep-11 16:00N 58°25' E 010°52'612.3
2017-Sep-11 15:30N 58°31' E 010°48'611.5
2017-Sep-11 14:59N 58°36' E 010°46'1311.9
2017-Sep-11 13:51N 58°49' E 010°39'411.2
2017-Sep-11 13:30N 58°53' E 010°38'510.9
2017-Sep-11 13:00N 58°59' E 010°38'510.5
2017-Sep-11 12:30N 59°04' E 010°36'3 6.5
2017-Sep-11 12:00N 59°07' E 010°36'510.4
2017-Sep-11 11:30N 59°12' E 010°37'510.9
2017-Sep-11 11:00N 59°18' E 010°35'3 5.5
2017-Sep-11 10:30N 59°20' E 010°31'0 0.0
2017-Sep-11 10:00N 59°20' E 010°31'0 0.0
2017-Sep-11 09:30N 59°20' E 010°31'0 0.0
2017-Sep-11 09:00N 59°20' E 010°31'0 0.0
2017-Sep-11 08:30N 59°20' E 010°31'0 0.0
2017-Sep-11 08:00N 59°20' E 010°31'0 0.0
2017-Sep-11 07:30N 59°20' E 010°31'0 0.0
2017-Sep-11 07:00N 59°20' E 010°31'0 0.0
2017-Sep-11 06:30N 59°20' E 010°31'0 0.0
2017-Sep-11 06:00N 59°20' E 010°31'0 0.0
2017-Sep-11 05:30N 59°20' E 010°31'0 0.0
2017-Sep-11 05:00N 59°20' E 010°31'0 0.0
2017-Sep-11 04:30N 59°20' E 010°31'0 0.0
2017-Sep-11 04:00N 59°20' E 010°31'0 0.0
2017-Sep-11 03:30N 59°20' E 010°31'0 0.0
2017-Sep-11 03:00N 59°20' E 010°31'0 0.0
2017-Sep-11 02:30N 59°20' E 010°31'0 0.0
2017-Sep-11 02:00N 59°20' E 010°31'0 0.0
2017-Sep-11 01:30N 59°20' E 010°31'0 0.0
2017-Sep-11 01:00N 59°20' E 010°31'0 0.0
2017-Sep-11 00:30N 59°20' E 010°31'0 0.0
2017-Sep-11 00:00N 59°20' E 010°31'0 0.0
2017-Sep-10 23:30N 59°20' E 010°31'0 0.0
2017-Sep-10 23:00N 59°20' E 010°31'0 0.0
2017-Sep-10 22:30N 59°20' E 010°31'0 0.0
2017-Sep-10 22:00N 59°20' E 010°31'0 0.0
2017-Sep-10 21:30N 59°20' E 010°31'0 0.0
2017-Sep-10 21:00N 59°20' E 010°31'0 0.0
2017-Sep-10 20:30N 59°20' E 010°31'0 0.0
2017-Sep-10 20:00N 59°20' E 010°31'0 0.0
2017-Sep-10 19:30N 59°20' E 010°31'0 0.0
2017-Sep-10 19:00N 59°20' E 010°31'0 0.0
2017-Sep-10 18:30N 59°20' E 010°31'0 0.0
2017-Sep-10 18:00N 59°20' E 010°31'0 0.0
2017-Sep-10 17:30N 59°20' E 010°31'0 0.0
2017-Sep-10 17:00N 59°20' E 010°31'0 0.0
2017-Sep-10 16:30N 59°20' E 010°31'0 0.0
2017-Sep-10 16:00N 59°20' E 010°31'0 0.0
2017-Sep-10 15:30N 59°20' E 010°31'0 0.0
2017-Sep-10 15:00N 59°20' E 010°31'0 0.0
2017-Sep-10 14:00N 59°20' E 010°31'0 0.0
2017-Sep-10 13:30N 59°20' E 010°31'0 0.0
2017-Sep-10 13:00N 59°20' E 010°31'0 0.0
2017-Sep-10 12:30N 59°20' E 010°31'0 0.0
2017-Sep-10 12:00N 59°20' E 010°31'0 0.0
2017-Sep-10 11:30N 59°20' E 010°31'0 0.0
2017-Sep-10 11:00N 59°20' E 010°31'0 0.0
2017-Sep-10 10:30N 59°20' E 010°31'0 0.0
2017-Sep-10 10:00N 59°20' E 010°31'0 0.0
2017-Sep-10 09:30N 59°20' E 010°31'0 0.0
2017-Sep-10 09:00N 59°20' E 010°31'0 0.0
2017-Sep-10 08:30N 59°20' E 010°31'0 0.0
2017-Sep-10 08:00N 59°20' E 010°31'0 0.0
2017-Sep-10 07:30N 59°20' E 010°31'0 0.0
2017-Sep-10 07:00N 59°20' E 010°31'0 0.0
2017-Sep-10 06:30N 59°20' E 010°31'0 0.0
2017-Sep-10 06:00N 59°20' E 010°31'0 0.0
2017-Sep-10 05:30N 59°20' E 010°31'0 0.0
2017-Sep-10 05:00N 59°20' E 010°31'0 0.0
2017-Sep-10 04:30N 59°20' E 010°31'0 0.0
2017-Sep-10 04:00N 59°20' E 010°31'0 0.0
2017-Sep-10 03:30N 59°20' E 010°31'0 0.0
2017-Sep-10 03:00N 59°20' E 010°31'0 0.0
2017-Sep-10 02:30N 59°20' E 010°31'0 0.0
2017-Sep-10 02:00N 59°20' E 010°31'0 0.0
2017-Sep-10 01:30N 59°20' E 010°31'0 0.0
2017-Sep-10 01:00N 59°20' E 010°31'0 0.0
2017-Sep-10 00:30N 59°20' E 010°31'0 0.0
2017-Sep-10 00:00N 59°20' E 010°31'0 0.0
2017-Sep-09 23:30N 59°20' E 010°31'0 0.0
2017-Sep-09 23:00N 59°20' E 010°31'0 0.0
2017-Sep-09 22:30N 59°20' E 010°31'0 0.0
2017-Sep-09 22:00N 59°20' E 010°31'0 0.0
2017-Sep-09 21:27N 59°20' E 010°31'0 0.0
2017-Sep-09 21:00N 59°20' E 010°31'0 0.0
2017-Sep-09 20:30N 59°20' E 010°31'0 0.0
2017-Sep-09 20:00N 59°20' E 010°31'0 0.0
2017-Sep-09 19:30N 59°20' E 010°31'0 0.0
2017-Sep-09 19:00N 59°20' E 010°31'0 0.0
2017-Sep-09 18:30N 59°20' E 010°31'0 0.0
2017-Sep-09 18:00N 59°20' E 010°31'0 0.0
2017-Sep-09 17:30N 59°20' E 010°31'0 0.0
2017-Sep-09 17:00N 59°20' E 010°31'0 0.0
2017-Sep-09 16:30N 59°20' E 010°31'0 0.0
2017-Sep-09 16:00N 59°20' E 010°31'0 0.0
2017-Sep-09 15:30N 59°20' E 010°31'0 0.0
2017-Sep-09 15:00N 59°20' E 010°31'0 0.0
2017-Sep-09 14:30N 59°20' E 010°31'0 0.0
2017-Sep-09 14:00N 59°20' E 010°31'0 0.0
2017-Sep-09 13:30N 59°20' E 010°31'0 0.0
2017-Sep-09 13:00N 59°20' E 010°31'0 0.0
2017-Sep-09 12:30N 59°20' E 010°31'0 0.7
2017-Sep-09 12:00N 59°20' E 010°31'1 1.3
2017-Sep-09 11:30N 59°21' E 010°31'0 0.4
2017-Sep-09 10:58N 59°21' E 010°31'0 0.0
2017-Sep-09 10:28N 59°21' E 010°31'0 0.0
2017-Sep-09 09:58N 59°21' E 010°31'0 0.1
2017-Sep-09 09:28N 59°21' E 010°31'0 0.1
2017-Sep-09 08:58N 59°21' E 010°31'0 0.0
2017-Sep-09 08:28N 59°21' E 010°31'0 0.0
2017-Sep-09 07:58N 59°21' E 010°31'  
Track history (hours):
 
Tides and Currents Weather Stations Pressure Air Temp Water Temp Dewpoint Dewpoint Depression Visibility Wind Speed Wind Dir Waves Ship Positions

Hafnia Lene

Last reported at 2017-Sep-19 07:32 UTC. Time now 2017-Sep-19 17:25 UTC.
Position N 58°31' E 004°49'.

Length 183 m; draft 11 m.

Type: Tanker. MMSI: 256468000.

Date/timePositionNaut miles runAvg speedWind from/ knotsBaromVisibWave heightAir tempDewpointWater temp
2017-Sep-19 07:32N 58°31' E 004°49'114.1
2017-Sep-19 07:30N 58°30' E 004°50'714.4
2017-Sep-19 07:00N 58°28' E 005°03'714.3
2017-Sep-19 06:30N 58°25' E 005°15'714.2
2017-Sep-19 06:01N 58°20' E 005°25'714.0
2017-Sep-19 05:30N 58°16' E 005°36'714.0
2017-Sep-19 05:00N 58°11' E 005°46'714.2
2017-Sep-19 04:30N 58°07' E 005°56'714.3
2017-Sep-19 04:00N 58°02' E 006°06'714.4
2017-Sep-19 03:30N 57°57' E 006°17'714.4
2017-Sep-19 02:59N 57°52' E 006°27'714.4
2017-Sep-19 02:30N 57°48' E 006°37'714.6
2017-Sep-19 02:00N 57°48' E 006°51'815.3
2017-Sep-19 01:30N 57°48' E 007°05'815.3
2017-Sep-19 01:00N 57°47' E 007°20'815.3
2017-Sep-19 00:30N 57°47' E 007°34'714.3
2017-Sep-19 00:00N 57°46' E 007°48'713.7
2017-Sep-18 23:30N 57°46' E 008°01'713.4
2017-Sep-18 23:00N 57°47' E 008°13'7813.2
2017-Sep-18 17:06N 57°50' E 010°38'213.0
2017-Sep-18 16:59N 57°50' E 010°41'611.5
2017-Sep-18 16:30N 57°45' E 010°47'3 6.4
2017-Sep-18 15:58N 57°43' E 010°42'0 0.1
2017-Sep-18 15:10N 57°43' E 010°42'0 0.0
2017-Sep-18 14:52N 57°43' E 010°42'0 0.0
2017-Sep-18 14:28N 57°43' E 010°42'0 0.1
2017-Sep-18 13:19N 57°43' E 010°42'0 0.0
2017-Sep-18 12:01N 57°43' E 010°42'0 0.2
2017-Sep-18 11:55N 57°43' E 010°42'0 0.1
2017-Sep-18 11:23N 57°43' E 010°42'1 3.1
2017-Sep-18 11:00N 57°43' E 010°45'612.2
2017-Sep-18 10:30N 57°41' E 010°55'713.1
2017-Sep-18 10:00N 57°38' E 011°06'713.3
2017-Sep-18 09:30N 57°33' E 011°16'713.2
2017-Sep-18 09:00N 57°29' E 011°24'713.1
2017-Sep-18 08:30N 57°23' E 011°29'713.0
2017-Sep-18 08:00N 57°17' E 011°33'713.0
2017-Sep-18 07:29N 57°10' E 011°38'612.9
2017-Sep-18 07:00N 57°05' E 011°42'712.7
2017-Sep-18 06:29N 56°58' E 011°46'712.6
2017-Sep-18 05:57N 56°52' E 011°50'712.6
2017-Sep-18 05:25N 56°46' E 011°54'812.3
2017-Sep-18 04:46N 56°38' E 011°47'312.4
2017-Sep-18 04:30N 56°36' E 011°44'712.5
2017-Sep-18 03:58N 56°30' E 011°38'7212.0
2017-Sep-17 22:01N 55°21' E 011°02'014.4
2017-Sep-17 22:01N 55°21' E 011°02'713.2
2017-Sep-17 21:30N 55°15' E 011°06'611.6
2017-Sep-17 20:59N 55°09' E 011°00'613.1
2017-Sep-17 20:31N 55°03' E 011°00'713.5
2017-Sep-17 20:00N 54°57' E 010°55'714.1
2017-Sep-17 19:30N 54°51' E 010°50'713.9
2017-Sep-17 19:00N 54°44' E 010°47'611.3
2017-Sep-17 18:30N 54°40' E 010°54'713.2
2017-Sep-17 18:00N 54°38' E 011°05'713.6
2017-Sep-17 17:30N 54°35' E 011°16'714.1
2017-Sep-17 17:01N 54°32' E 011°27'713.1
2017-Sep-17 16:31N 54°29' E 011°36'612.9
2017-Sep-17 16:01N 54°27' E 011°47'713.1
2017-Sep-17 15:30N 54°27' E 011°58'612.9
2017-Sep-17 15:01N 54°27' E 012°09'612.1
2017-Sep-17 14:31N 54°32' E 012°13'2610.1
2017-Sep-17 11:58N 54°49' E 012°48'3112.7
2017-Sep-17 09:34N 54°58' E 013°38'1712.7
2017-Sep-17 08:16N 55°04' E 014°05'313.2
2017-Sep-17 08:00N 55°07' E 014°09'713.1
2017-Sep-17 07:30N 55°12' E 014°16'713.2
2017-Sep-17 07:01N 55°17' E 014°23'713.0
2017-Sep-17 06:30N 55°22' E 014°30'713.1
2017-Sep-17 06:00N 55°27' E 014°38'713.6
2017-Sep-17 05:30N 55°30' E 014°49'713.7
2017-Sep-17 05:00N 55°33' E 014°60'713.8
2017-Sep-17 04:28N 55°37' E 015°11'613.6
2017-Sep-17 04:00N 55°39' E 015°21'713.6
2017-Sep-17 03:31N 55°41' E 015°33'713.6
2017-Sep-17 03:01N 55°42' E 015°45'713.5
2017-Sep-17 02:31N 55°44' E 015°56'713.8
2017-Sep-17 02:00N 55°46' E 016°08'713.6
2017-Sep-17 01:30N 55°47' E 016°20'713.5
2017-Sep-17 01:00N 55°49' E 016°32'713.2
2017-Sep-17 00:30N 55°51' E 016°43'713.2
2017-Sep-17 00:00N 55°52' E 016°55'713.3
2017-Sep-16 23:30N 55°54' E 017°06'1213.2
2017-Sep-16 22:37N 55°57' E 017°26'313.2
2017-Sep-16 22:25N 55°57' E 017°31'27912.2
2017-Sep-15 23:37N 59°32' E 023°06'211.8
2017-Sep-15 23:27N 59°31' E 023°10'812.8
2017-Sep-15 22:48N 59°29' E 023°25'  
2017-Sep-13 18:46N 59°24' E 023°50'3 9.5
2017-Sep-13 18:25N 59°24' E 023°43'612.5
2017-Sep-13 17:58N 59°25' E 023°32'813.2
2017-Sep-13 17:23N 59°26' E 023°17'1313.7
2017-Sep-13 16:26N 59°27' E 022°52'27514.2
2017-Sep-12 21:05N 56°08' E 016°56'214.3
2017-Sep-12 20:59N 56°07' E 016°54'714.3
2017-Sep-12 20:30N 56°03' E 016°45'714.2
2017-Sep-12 20:00N 55°59' E 016°34'714.4
2017-Sep-12 19:30N 55°56' E 016°23'714.3
2017-Sep-12 19:00N 55°52' E 016°12'714.2
2017-Sep-12 18:30N 55°49' E 016°00'714.3
2017-Sep-12 18:00N 55°46' E 015°49'714.4
2017-Sep-12 17:30N 55°43' E 015°38'714.5
2017-Sep-12 17:00N 55°39' E 015°26'714.3
2017-Sep-12 16:30N 55°36' E 015°15'714.3
2017-Sep-12 16:00N 55°32' E 015°04'714.5
2017-Sep-12 15:30N 55°29' E 014°52'714.3
2017-Sep-12 15:00N 55°26' E 014°41'714.2
2017-Sep-12 14:30N 55°20' E 014°33'714.2
2017-Sep-12 14:00N 55°15' E 014°25'713.6
2017-Sep-12 13:30N 55°10' E 014°17'713.9
2017-Sep-12 13:00N 55°10' E 014°05'713.8
2017-Sep-12 12:30N 55°10' E 013°53'713.9
2017-Sep-12 11:59N 55°11' E 013°41'713.8
2017-Sep-12 11:28N 55°11' E 013°28'614.0
2017-Sep-12 11:00N 55°11' E 013°17'714.0
2017-Sep-12 10:30N 55°12' E 013°05'713.8
2017-Sep-12 10:00N 55°15' E 012°53'714.7
2017-Sep-12 09:30N 55°17' E 012°41'611.8
2017-Sep-12 09:00N 55°23' E 012°40'612.5
2017-Sep-12 08:30N 55°29' E 012°42'4 8.1
2017-Sep-12 08:00N 55°32' E 012°46'4 8.9
2017-Sep-12 07:30N 55°36' E 012°51'5 9.5
2017-Sep-12 07:00N 55°40' E 012°56'612.3
2017-Sep-12 06:30N 55°45' E 012°50'612.4
2017-Sep-12 06:00N 55°50' E 012°45'612.6
2017-Sep-12 05:30N 55°57' E 012°43'612.4
2017-Sep-12 05:00N 56°02' E 012°39'611.8
2017-Sep-12 04:30N 56°07' E 012°32'510.4
2017-Sep-12 04:00N 56°10' E 012°24'611.5
2017-Sep-12 03:30N 56°13' E 012°16'611.9
2017-Sep-12 03:00N 56°16' E 012°07'5212.3
2017-Sep-11 22:46N 57°06' E 011°39'312.0
2017-Sep-11 22:30N 57°09' E 011°37'612.1
2017-Sep-11 22:00N 57°15' E 011°33'611.6
2017-Sep-11 21:30N 57°20' E 011°30'611.5
2017-Sep-11 21:00N 57°26' E 011°26'611.9
2017-Sep-11 20:30N 57°31' E 011°22'713.0
2017-Sep-11 20:00N 57°37' E 011°16'612.4
2017-Sep-11 19:30N 57°43' E 011°14'612.8
2017-Sep-11 18:59N 57°50' E 011°12'612.7
2017-Sep-11 18:30N 57°56' E 011°09'612.3
2017-Sep-11 18:00N 58°02' E 011°06'612.2
2017-Sep-11 17:30N 58°08' E 011°02'612.1
2017-Sep-11 17:00N 58°13' E 011°01'612.0
2017-Sep-11 16:30N 58°19' E 010°57'612.3
2017-Sep-11 16:00N 58°25' E 010°52'612.3
2017-Sep-11 15:30N 58°31' E 010°48'611.5
2017-Sep-11 14:59N 58°36' E 010°46'1311.9
2017-Sep-11 13:51N 58°49' E 010°39'411.2
2017-Sep-11 13:30N 58°53' E 010°38'510.9
2017-Sep-11 13:00N 58°59' E 010°38'510.5
2017-Sep-11 12:30N 59°04' E 010°36'3 6.5
2017-Sep-11 12:00N 59°07' E 010°36'510.4
2017-Sep-11 11:30N 59°12' E 010°37'510.9
2017-Sep-11 11:00N 59°18' E 010°35'3 5.5
2017-Sep-11 10:30N 59°20' E 010°31'0 0.0
2017-Sep-11 10:00N 59°20' E 010°31'0 0.0
2017-Sep-11 09:30N 59°20' E 010°31'0 0.0
2017-Sep-11 09:00N 59°20' E 010°31'0 0.0
2017-Sep-11 08:30N 59°20' E 010°31'0 0.0
2017-Sep-11 08:00N 59°20' E 010°31'0 0.0
2017-Sep-11 07:30N 59°20' E 010°31'0 0.0
2017-Sep-11 07:00N 59°20' E 010°31'0 0.0
2017-Sep-11 06:30N 59°20' E 010°31'0 0.0
2017-Sep-11 06:00N 59°20' E 010°31'0 0.0
2017-Sep-11 05:30N 59°20' E 010°31'0 0.0
2017-Sep-11 05:00N 59°20' E 010°31'0 0.0
2017-Sep-11 04:30N 59°20' E 010°31'0 0.0
2017-Sep-11 04:00N 59°20' E 010°31'0 0.0
2017-Sep-11 03:30N 59°20' E 010°31'0 0.0
2017-Sep-11 03:00N 59°20' E 010°31'0 0.0
2017-Sep-11 02:30N 59°20' E 010°31'0 0.0
2017-Sep-11 02:00N 59°20' E 010°31'0 0.0
2017-Sep-11 01:30N 59°20' E 010°31'0 0.0
2017-Sep-11 01:00N 59°20' E 010°31'0 0.0
2017-Sep-11 00:30N 59°20' E 010°31'0 0.0
2017-Sep-11 00:00N 59°20' E 010°31'0 0.0
2017-Sep-10 23:30N 59°20' E 010°31'0 0.0
2017-Sep-10 23:00N 59°20' E 010°31'0 0.0
2017-Sep-10 22:30N 59°20' E 010°31'0 0.0
2017-Sep-10 22:00N 59°20' E 010°31'0 0.0
2017-Sep-10 21:30N 59°20' E 010°31'0 0.0
2017-Sep-10 21:00N 59°20' E 010°31'0 0.0
2017-Sep-10 20:30N 59°20' E 010°31'0 0.0
2017-Sep-10 20:00N 59°20' E 010°31'0 0.0
2017-Sep-10 19:30N 59°20' E 010°31'0 0.0
2017-Sep-10 19:00N 59°20' E 010°31'0 0.0
2017-Sep-10 18:30N 59°20' E 010°31'0 0.0
2017-Sep-10 18:00N 59°20' E 010°31'0 0.0
2017-Sep-10 17:30N 59°20' E 010°31'0 0.0
2017-Sep-10 17:00N 59°20' E 010°31'0 0.0
2017-Sep-10 16:30N 59°20' E 010°31'0 0.0
2017-Sep-10 16:00N 59°20' E 010°31'0 0.0
2017-Sep-10 15:30N 59°20' E 010°31'0 0.0
2017-Sep-10 15:00N 59°20' E 010°31'0 0.0
2017-Sep-10 14:00N 59°20' E 010°31'0 0.0
2017-Sep-10 13:30N 59°20' E 010°31'0 0.0
2017-Sep-10 13:00N 59°20' E 010°31'0 0.0
2017-Sep-10 12:30N 59°20' E 010°31'0 0.0
2017-Sep-10 12:00N 59°20' E 010°31'0 0.0
2017-Sep-10 11:30N 59°20' E 010°31'0 0.0
2017-Sep-10 11:00N 59°20' E 010°31'0 0.0
2017-Sep-10 10:30N 59°20' E 010°31'0 0.0
2017-Sep-10 10:00N 59°20' E 010°31'0 0.0
2017-Sep-10 09:30N 59°20' E 010°31'0 0.0
2017-Sep-10 09:00N 59°20' E 010°31'0 0.0
2017-Sep-10 08:30N 59°20' E 010°31'0 0.0
2017-Sep-10 08:00N 59°20' E 010°31'0 0.0
2017-Sep-10 07:30N 59°20' E 010°31'0 0.0
2017-Sep-10 07:00N 59°20' E 010°31'0 0.0
2017-Sep-10 06:30N 59°20' E 010°31'0 0.0
2017-Sep-10 06:00N 59°20' E 010°31'0 0.0
2017-Sep-10 05:30N 59°20' E 010°31'0 0.0
2017-Sep-10 05:00N 59°20' E 010°31'0 0.0
2017-Sep-10 04:30N 59°20' E 010°31'0 0.0
2017-Sep-10 04:00N 59°20' E 010°31'0 0.0
2017-Sep-10 03:30N 59°20' E 010°31'0 0.0
2017-Sep-10 03:00N 59°20' E 010°31'0 0.0
2017-Sep-10 02:30N 59°20' E 010°31'0 0.0
2017-Sep-10 02:00N 59°20' E 010°31'0 0.0
2017-Sep-10 01:30N 59°20' E 010°31'0 0.0
2017-Sep-10 01:00N 59°20' E 010°31'0 0.0
2017-Sep-10 00:30N 59°20' E 010°31'0 0.0
2017-Sep-10 00:00N 59°20' E 010°31'0 0.0
2017-Sep-09 23:30N 59°20' E 010°31'0 0.0
2017-Sep-09 23:00N 59°20' E 010°31'0 0.0
2017-Sep-09 22:30N 59°20' E 010°31'0 0.0
2017-Sep-09 22:00N 59°20' E 010°31'0 0.0
2017-Sep-09 21:27N 59°20' E 010°31'0 0.0
2017-Sep-09 21:00N 59°20' E 010°31'0 0.0
2017-Sep-09 20:30N 59°20' E 010°31'0 0.0
2017-Sep-09 20:00N 59°20' E 010°31'0 0.0
2017-Sep-09 19:30N 59°20' E 010°31'0 0.0
2017-Sep-09 19:00N 59°20' E 010°31'0 0.0
2017-Sep-09 18:30N 59°20' E 010°31'0 0.0
2017-Sep-09 18:00N 59°20' E 010°31'0 0.0
2017-Sep-09 17:30N 59°20' E 010°31'0 0.0
2017-Sep-09 17:00N 59°20' E 010°31'0 0.0
2017-Sep-09 16:30N 59°20' E 010°31'0 0.0
2017-Sep-09 16:00N 59°20' E 010°31'0 0.0
2017-Sep-09 15:30N 59°20' E 010°31'0 0.0
2017-Sep-09 15:00N 59°20' E 010°31'0 0.0
2017-Sep-09 14:30N 59°20' E 010°31'0 0.0
2017-Sep-09 14:00N 59°20' E 010°31'0 0.0
2017-Sep-09 13:30N 59°20' E 010°31'0 0.0
2017-Sep-09 13:00N 59°20' E 010°31'0 0.0
2017-Sep-09 12:30N 59°20' E 010°31'0 0.7
2017-Sep-09 12:00N 59°20' E 010°31'1 1.3
2017-Sep-09 11:30N 59°21' E 010°31'0 0.4
2017-Sep-09 10:58N 59°21' E 010°31'0 0.0
2017-Sep-09 10:28N 59°21' E 010°31'0 0.0
2017-Sep-09 09:58N 59°21' E 010°31'0 0.1
2017-Sep-09 09:28N 59°21' E 010°31'0 0.1
2017-Sep-09 08:58N 59°21' E 010°31'0 0.0
2017-Sep-09 08:28N 59°21' E 010°31'0 0.0
2017-Sep-09 07:58N 59°21' E 010°31'  

Dump ship's entire track history